sensor_id;sensor_type;location;lat;lon;timestamp;pressure;altitude;pressure_sealevel;temperature;humidity
67397;BME280;57728;50.448;18.824;2023-05-24T00:01:15;97537.09;;;17.87;74.82
67397;BME280;57728;50.448;18.824;2023-05-24T00:03:25;97518.50;;;17.74;74.87
67397;BME280;57728;50.448;18.824;2023-05-24T00:05:26;97527.34;;;17.71;74.64
67397;BME280;57728;50.448;18.824;2023-05-24T00:07:31;97538.25;;;17.81;74.95
67397;BME280;57728;50.448;18.824;2023-05-24T00:09:32;97539.72;;;17.74;74.83
67397;BME280;57728;50.448;18.824;2023-05-24T00:11:33;97540.59;;;17.69;75.15
67397;BME280;57728;50.448;18.824;2023-05-24T00:13:36;97498.69;;;17.43;75.52
67397;BME280;57728;50.448;18.824;2023-05-24T00:15:37;97550.72;;;17.74;75.11
67397;BME280;57728;50.448;18.824;2023-05-24T00:17:39;97537.28;;;17.67;75.58
67397;BME280;57728;50.448;18.824;2023-05-24T00:19:43;97542.47;;;17.74;75.00
67397;BME280;57728;50.448;18.824;2023-05-24T00:21:45;97530.19;;;17.61;75.40
67397;BME280;57728;50.448;18.824;2023-05-24T00:23:46;97547.16;;;17.73;75.04
67397;BME280;57728;50.448;18.824;2023-05-24T00:25:48;97527.75;;;17.59;75.07
67397;BME280;57728;50.448;18.824;2023-05-24T00:27:50;97550.75;;;17.68;75.00
67397;BME280;57728;50.448;18.824;2023-05-24T00:29:51;97548.59;;;17.65;75.00
67397;BME280;57728;50.448;18.824;2023-05-24T00:31:53;97502.34;;;17.38;74.99
67397;BME280;57728;50.448;18.824;2023-05-24T00:33:54;97542.84;;;17.62;75.45
67397;BME280;57728;50.448;18.824;2023-05-24T00:35:56;97541.78;;;17.58;75.13
67397;BME280;57728;50.448;18.824;2023-05-24T00:37:58;97543.47;;;17.53;75.18
67397;BME280;57728;50.448;18.824;2023-05-24T00:39:59;97536.94;;;17.44;75.21
67397;BME280;57728;50.448;18.824;2023-05-24T00:42:01;97527.69;;;17.30;74.98
67397;BME280;57728;50.448;18.824;2023-05-24T00:44:03;97517.09;;;17.13;75.44
67397;BME280;57728;50.448;18.824;2023-05-24T00:46:15;97553.56;;;17.29;75.56
67397;BME280;57728;50.448;18.824;2023-05-24T00:48:18;97538.22;;;17.17;75.70
67397;BME280;57728;50.448;18.824;2023-05-24T00:50:20;97529.25;;;17.07;75.52
67397;BME280;57728;50.448;18.824;2023-05-24T00:52:22;97541.38;;;17.00;75.52
67397;BME280;57728;50.448;18.824;2023-05-24T00:54:24;97528.50;;;16.96;75.62
67397;BME280;57728;50.448;18.824;2023-05-24T00:56:27;97560.03;;;17.09;75.90
67397;BME280;57728;50.448;18.824;2023-05-24T00:58:30;97555.63;;;17.08;75.91
67397;BME280;57728;50.448;18.824;2023-05-24T01:00:32;97560.06;;;17.04;75.80
67397;BME280;57728;50.448;18.824;2023-05-24T01:02:34;97554.59;;;16.98;75.86
67397;BME280;57728;50.448;18.824;2023-05-24T01:04:36;97525.81;;;16.80;75.89
67397;BME280;57728;50.448;18.824;2023-05-24T01:09:28;97571.34;;;17.02;76.35
67397;BME280;57728;50.448;18.824;2023-05-24T01:14:38;97570.53;;;17.01;76.11
67397;BME280;57728;50.448;18.824;2023-05-24T01:19:53;97570.00;;;16.99;76.20
67397;BME280;57728;50.448;18.824;2023-05-24T01:22:12;97576.31;;;17.00;76.21
67397;BME280;57728;50.448;18.824;2023-05-24T01:27:12;97568.63;;;16.97;76.00
67397;BME280;57728;50.448;18.824;2023-05-24T01:29:31;97570.31;;;16.93;76.08
67397;BME280;57728;50.448;18.824;2023-05-24T01:31:49;97576.38;;;16.90;76.13
67397;BME280;57728;50.448;18.824;2023-05-24T01:34:07;97577.47;;;16.89;75.91
67397;BME280;57728;50.448;18.824;2023-05-24T01:36:26;97558.56;;;16.77;76.22
67397;BME280;57728;50.448;18.824;2023-05-24T01:38:43;97568.69;;;16.76;76.54
67397;BME280;57728;50.448;18.824;2023-05-24T01:43:39;97580.50;;;16.82;76.19
67397;BME280;57728;50.448;18.824;2023-05-24T01:51:05;97584.09;;;16.77;75.95
67397;BME280;57728;50.448;18.824;2023-05-24T01:53:12;97564.94;;;16.62;76.51
67397;BME280;57728;50.448;18.824;2023-05-24T01:55:19;97569.56;;;16.66;76.17
67397;BME280;57728;50.448;18.824;2023-05-24T01:57:25;97585.19;;;16.76;76.06
67397;BME280;57728;50.448;18.824;2023-05-24T01:59:29;97559.44;;;16.62;76.51
67397;BME280;57728;50.448;18.824;2023-05-24T02:01:33;97584.63;;;16.79;76.27
67397;BME280;57728;50.448;18.824;2023-05-24T02:03:36;97564.41;;;16.60;76.35
67397;BME280;57728;50.448;18.824;2023-05-24T02:05:38;97568.75;;;16.66;76.29
67397;BME280;57728;50.448;18.824;2023-05-24T02:07:40;97581.66;;;16.71;76.32
67397;BME280;57728;50.448;18.824;2023-05-24T02:09:42;97576.19;;;16.65;76.35
67397;BME280;57728;50.448;18.824;2023-05-24T02:11:43;97581.41;;;16.67;76.17
67397;BME280;57728;50.448;18.824;2023-05-24T02:13:44;97564.41;;;16.55;76.32
67397;BME280;57728;50.448;18.824;2023-05-24T02:15:46;97590.69;;;16.76;76.09
67397;BME280;57728;50.448;18.824;2023-05-24T02:17:48;97594.53;;;16.75;76.30
67397;BME280;57728;50.448;18.824;2023-05-24T02:19:49;97589.88;;;16.71;76.00
67397;BME280;57728;50.448;18.824;2023-05-24T02:21:51;97566.06;;;16.56;76.44
67397;BME280;57728;50.448;18.824;2023-05-24T02:23:53;97538.91;;;16.44;76.09
67397;BME280;57728;50.448;18.824;2023-05-24T02:25:54;97594.00;;;16.73;76.14
67397;BME280;57728;50.448;18.824;2023-05-24T02:27:57;97563.31;;;16.56;76.23
67397;BME280;57728;50.448;18.824;2023-05-24T02:29:59;97605.78;;;16.89;76.09
67397;BME280;57728;50.448;18.824;2023-05-24T02:32:00;97598.34;;;16.84;76.13
67397;BME280;57728;50.448;18.824;2023-05-24T02:34:02;97609.91;;;16.92;75.51
67397;BME280;57728;50.448;18.824;2023-05-24T02:36:04;97611.84;;;16.91;75.77
67397;BME280;57728;50.448;18.824;2023-05-24T02:38:05;97525.44;;;16.37;75.57
67397;BME280;57728;50.448;18.824;2023-05-24T02:40:08;97616.75;;;16.94;75.72
67397;BME280;57728;50.448;18.824;2023-05-24T02:42:09;97555.88;;;16.56;75.40
67397;BME280;57728;50.448;18.824;2023-05-24T02:44:11;97576.41;;;16.74;75.32
67397;BME280;57728;50.448;18.824;2023-05-24T02:46:13;97618.94;;;16.97;75.26
67397;BME280;57728;50.448;18.824;2023-05-24T02:48:32;97591.78;;;16.80;75.51
67397;BME280;57728;50.448;18.824;2023-05-24T02:50:49;97596.97;;;16.87;75.47
67397;BME280;57728;50.448;18.824;2023-05-24T02:53:05;97602.75;;;16.85;75.11
67397;BME280;57728;50.448;18.824;2023-05-24T02:55:21;97616.78;;;16.89;75.20
67397;BME280;57728;50.448;18.824;2023-05-24T02:57:37;97609.34;;;16.84;75.06
67397;BME280;57728;50.448;18.824;2023-05-24T02:59:54;97620.88;;;16.87;75.11
67397;BME280;57728;50.448;18.824;2023-05-24T03:02:11;97606.63;;;16.79;75.69
67397;BME280;57728;50.448;18.824;2023-05-24T03:04:31;97615.41;;;16.81;75.54
67397;BME280;57728;50.448;18.824;2023-05-24T03:06:47;97591.56;;;16.66;75.58
67397;BME280;57728;50.448;18.824;2023-05-24T03:09:05;97582.56;;;16.50;75.69
67397;BME280;57728;50.448;18.824;2023-05-24T03:11:23;97612.13;;;16.79;75.48
67397;BME280;57728;50.448;18.824;2023-05-24T03:13:39;97623.44;;;16.73;75.64
67397;BME280;57728;50.448;18.824;2023-05-24T03:15:55;97627.78;;;16.79;75.68
67397;BME280;57728;50.448;18.824;2023-05-24T03:18:12;97358.94;;;15.05;75.44
67397;BME280;57728;50.448;18.824;2023-05-24T03:20:30;97625.56;;;16.81;75.73
67397;BME280;57728;50.448;18.824;2023-05-24T03:22:46;97630.53;;;16.84;75.80
67397;BME280;57728;50.448;18.824;2023-05-24T03:25:03;97630.78;;;16.88;75.53
67397;BME280;57728;50.448;18.824;2023-05-24T03:27:20;97619.03;;;16.77;75.33
67397;BME280;57728;50.448;18.824;2023-05-24T03:29:37;97607.47;;;16.70;75.52
67397;BME280;57728;50.448;18.824;2023-05-24T03:31:54;97630.03;;;16.77;75.60
67397;BME280;57728;50.448;18.824;2023-05-24T03:34:10;97642.34;;;16.84;75.63
67397;BME280;57728;50.448;18.824;2023-05-24T03:36:28;97623.41;;;16.78;75.46
67397;BME280;57728;50.448;18.824;2023-05-24T03:38:30;97635.75;;;16.80;75.86
67397;BME280;57728;50.448;18.824;2023-05-24T03:40:33;97634.94;;;16.80;75.79
67397;BME280;57728;50.448;18.824;2023-05-24T03:42:46;97633.00;;;16.80;75.94
67397;BME280;57728;50.448;18.824;2023-05-24T03:44:48;97627.53;;;16.75;75.82
67397;BME280;57728;50.448;18.824;2023-05-24T03:46:50;97610.84;;;16.61;76.07
67397;BME280;57728;50.448;18.824;2023-05-24T03:48:51;97637.66;;;16.85;75.65
67397;BME280;57728;50.448;18.824;2023-05-24T03:50:54;97641.25;;;16.85;75.64
67397;BME280;57728;50.448;18.824;2023-05-24T03:52:55;97636.31;;;16.77;75.34
67397;BME280;57728;50.448;18.824;2023-05-24T03:54:57;97640.69;;;16.83;75.40
67397;BME280;57728;50.448;18.824;2023-05-24T03:56:59;97643.19;;;16.80;75.76
67397;BME280;57728;50.448;18.824;2023-05-24T03:59:01;97605.38;;;16.46;75.03
67397;BME280;57728;50.448;18.824;2023-05-24T04:01:18;97579.63;;;16.21;75.03
67397;BME280;57728;50.448;18.824;2023-05-24T04:03:35;97652.34;;;16.55;75.20
67397;BME280;57728;50.448;18.824;2023-05-24T04:05:52;97631.53;;;16.23;74.96
67397;BME280;57728;50.448;18.824;2023-05-24T04:08:01;97657.34;;;16.27;75.38
67397;BME280;57728;50.448;18.824;2023-05-24T04:10:04;97622.78;;;15.95;75.39
67397;BME280;57728;50.448;18.824;2023-05-24T04:12:06;97645.28;;;15.97;75.82
67397;BME280;57728;50.448;18.824;2023-05-24T04:14:08;97635.38;;;15.75;76.37
67397;BME280;57728;50.448;18.824;2023-05-24T04:16:09;97652.72;;;15.81;76.26
67397;BME280;57728;50.448;18.824;2023-05-24T04:18:10;97655.16;;;15.72;76.25
67397;BME280;57728;50.448;18.824;2023-05-24T04:20:13;97666.13;;;15.77;75.84
67397;BME280;57728;50.448;18.824;2023-05-24T04:22:14;97667.19;;;15.66;76.22
67397;BME280;57728;50.448;18.824;2023-05-24T04:24:17;97671.59;;;15.67;76.35
67397;BME280;57728;50.448;18.824;2023-05-24T04:26:19;97667.19;;;15.56;76.46
67397;BME280;57728;50.448;18.824;2023-05-24T04:28:21;97664.72;;;15.49;76.40
67397;BME280;57728;50.448;18.824;2023-05-24T04:30:23;97598.50;;;14.94;76.05
67397;BME280;57728;50.448;18.824;2023-05-24T04:32:25;97671.00;;;15.34;76.39
67397;BME280;57728;50.448;18.824;2023-05-24T04:34:29;97683.06;;;15.33;76.34
67397;BME280;57728;50.448;18.824;2023-05-24T04:36:33;97700.84;;;15.25;76.39
67397;BME280;57728;50.448;18.824;2023-05-24T04:38:36;97682.19;;;15.12;76.64
67397;BME280;57728;50.448;18.824;2023-05-24T04:40:38;97698.91;;;15.10;76.91
67397;BME280;57728;50.448;18.824;2023-05-24T04:42:39;97701.91;;;15.09;76.71
67397;BME280;57728;50.448;18.824;2023-05-24T04:44:42;97706.56;;;15.08;76.61
67397;BME280;57728;50.448;18.824;2023-05-24T04:46:44;97717.53;;;15.03;76.81
67397;BME280;57728;50.448;18.824;2023-05-24T04:48:45;97688.38;;;14.87;77.18
67397;BME280;57728;50.448;18.824;2023-05-24T04:50:52;97715.03;;;15.02;76.94
67397;BME280;57728;50.448;18.824;2023-05-24T04:52:55;97707.88;;;14.95;77.17
67397;BME280;57728;50.448;18.824;2023-05-24T04:54:56;97721.63;;;15.01;76.65
67397;BME280;57728;50.448;18.824;2023-05-24T04:56:58;97729.00;;;14.95;76.72
67397;BME280;57728;50.448;18.824;2023-05-24T04:59:00;97717.41;;;14.83;76.64
67397;BME280;57728;50.448;18.824;2023-05-24T05:01:17;97481.63;;;13.35;76.41
67397;BME280;57728;50.448;18.824;2023-05-24T05:03:19;97734.38;;;14.79;77.13
67397;BME280;57728;50.448;18.824;2023-05-24T05:05:20;97714.03;;;14.65;76.92
67397;BME280;57728;50.448;18.824;2023-05-24T05:07:22;97676.63;;;14.43;76.87
67397;BME280;57728;50.448;18.824;2023-05-24T05:09:24;97738.19;;;14.73;76.51
67397;BME280;57728;50.448;18.824;2023-05-24T05:11:25;97721.09;;;14.61;76.97
67397;BME280;57728;50.448;18.824;2023-05-24T05:13:27;97706.75;;;14.43;76.58
67397;BME280;57728;50.448;18.824;2023-05-24T05:15:29;97741.09;;;14.61;76.92
67397;BME280;57728;50.448;18.824;2023-05-24T05:17:30;97754.63;;;14.73;76.84
67397;BME280;57728;50.448;18.824;2023-05-24T05:19:46;97762.59;;;14.75;76.81
67397;BME280;57728;50.448;18.824;2023-05-24T05:21:48;97747.47;;;14.67;76.79
67397;BME280;57728;50.448;18.824;2023-05-24T05:23:50;97753.47;;;14.64;76.39
67397;BME280;57728;50.448;18.824;2023-05-24T05:25:51;97752.66;;;14.64;76.47
67397;BME280;57728;50.448;18.824;2023-05-24T05:27:53;97746.25;;;14.53;76.61
67397;BME280;57728;50.448;18.824;2023-05-24T05:29:54;97777.31;;;14.64;76.78
67397;BME280;57728;50.448;18.824;2023-05-24T05:31:56;97764.88;;;14.56;76.20
67397;BME280;57728;50.448;18.824;2023-05-24T05:33:58;97780.78;;;14.59;76.45
67397;BME280;57728;50.448;18.824;2023-05-24T05:35:59;97776.13;;;14.54;76.43
67397;BME280;57728;50.448;18.824;2023-05-24T05:38:15;97757.63;;;14.34;76.67
67397;BME280;57728;50.448;18.824;2023-05-24T05:40:31;97777.97;;;14.43;76.61
67397;BME280;57728;50.448;18.824;2023-05-24T05:42:48;97793.03;;;14.46;76.28
67397;BME280;57728;50.448;18.824;2023-05-24T05:44:50;97750.84;;;14.09;76.25
67397;BME280;57728;50.448;18.824;2023-05-24T05:46:52;97769.00;;;14.21;76.59
67397;BME280;57728;50.448;18.824;2023-05-24T05:48:53;97791.28;;;14.30;76.58
67397;BME280;57728;50.448;18.824;2023-05-24T05:50:55;97779.41;;;14.19;76.86
67397;BME280;57728;50.448;18.824;2023-05-24T05:52:56;97804.97;;;14.30;76.86
67397;BME280;57728;50.448;18.824;2023-05-24T05:54:57;97806.59;;;14.31;76.66
67397;BME280;57728;50.448;18.824;2023-05-24T05:57:00;97804.44;;;14.33;76.87
67397;BME280;57728;50.448;18.824;2023-05-24T05:59:02;97788.75;;;14.23;76.81
67397;BME280;57728;50.448;18.824;2023-05-24T06:01:03;97782.06;;;14.14;76.84
67397;BME280;57728;50.448;18.824;2023-05-24T06:03:19;97815.69;;;14.36;76.51
67397;BME280;57728;50.448;18.824;2023-05-24T06:05:21;97817.59;;;14.36;77.17
67397;BME280;57728;50.448;18.824;2023-05-24T06:07:23;97797.63;;;14.35;76.69
67397;BME280;57728;50.448;18.824;2023-05-24T06:09:24;97758.16;;;14.04;76.26
67397;BME280;57728;50.448;18.824;2023-05-24T06:11:26;97819.00;;;14.38;76.27
67397;BME280;57728;50.448;18.824;2023-05-24T06:13:28;97819.28;;;14.42;76.15
67397;BME280;57728;50.448;18.824;2023-05-24T06:15:30;97830.25;;;14.42;76.62
67397;BME280;57728;50.448;18.824;2023-05-24T06:17:35;97791.44;;;14.18;75.98
67397;BME280;57728;50.448;18.824;2023-05-24T06:19:37;97788.59;;;14.07;76.33
67397;BME280;57728;50.448;18.824;2023-05-24T06:21:39;97810.56;;;14.13;75.73
67397;BME280;57728;50.448;18.824;2023-05-24T06:23:47;97795.13;;;14.01;76.22
67397;BME280;57728;50.448;18.824;2023-05-24T06:25:48;97736.31;;;13.49;76.08
67397;BME280;57728;50.448;18.824;2023-05-24T06:27:50;97819.97;;;13.95;76.66
67397;BME280;57728;50.448;18.824;2023-05-24T06:29:52;97838.13;;;14.06;76.64
67397;BME280;57728;50.448;18.824;2023-05-24T06:31:53;97856.50;;;14.10;76.74
67397;BME280;57728;50.448;18.824;2023-05-24T06:33:54;97765.00;;;13.47;76.68
67397;BME280;57728;50.448;18.824;2023-05-24T06:35:57;97869.13;;;14.12;76.78
67397;BME280;57728;50.448;18.824;2023-05-24T06:37:58;97847.69;;;14.03;76.69
67397;BME280;57728;50.448;18.824;2023-05-24T06:39:59;97862.00;;;14.10;76.87
67397;BME280;57728;50.448;18.824;2023-05-24T06:42:01;97879.34;;;14.21;76.63
67397;BME280;57728;50.448;18.824;2023-05-24T06:44:10;97879.66;;;14.25;76.22
67397;BME280;57728;50.448;18.824;2023-05-24T06:46:27;97869.22;;;14.22;75.75
67397;BME280;57728;50.448;18.824;2023-05-24T06:48:43;97866.94;;;14.14;76.00
67397;BME280;57728;50.448;18.824;2023-05-24T06:50:59;97877.97;;;14.19;75.96
67397;BME280;57728;50.448;18.824;2023-05-24T06:53:01;97867.78;;;14.14;75.63
67397;BME280;57728;50.448;18.824;2023-05-24T06:55:03;97865.88;;;14.15;76.07
67397;BME280;57728;50.448;18.824;2023-05-24T06:57:04;97874.13;;;14.20;76.26
67397;BME280;57728;50.448;18.824;2023-05-24T06:59:06;97845.22;;;14.02;75.82
67397;BME280;57728;50.448;18.824;2023-05-24T07:01:09;97876.91;;;14.25;75.94
67397;BME280;57728;50.448;18.824;2023-05-24T07:03:12;97811.25;;;13.75;75.17
67397;BME280;57728;50.448;18.824;2023-05-24T07:05:14;97871.34;;;14.15;75.58
67397;BME280;57728;50.448;18.824;2023-05-24T07:07:15;97878.28;;;14.22;75.40
67397;BME280;57728;50.448;18.824;2023-05-24T07:09:17;97875.84;;;14.26;75.17
67397;BME280;57728;50.448;18.824;2023-05-24T07:11:20;97875.84;;;14.26;74.65
67397;BME280;57728;50.448;18.824;2023-05-24T07:13:21;97887.09;;;14.30;74.46
67397;BME280;57728;50.448;18.824;2023-05-24T07:15:23;97842.28;;;14.08;74.15
67397;BME280;57728;50.448;18.824;2023-05-24T07:17:24;97900.53;;;14.31;73.98
67397;BME280;57728;50.448;18.824;2023-05-24T07:19:26;97908.75;;;14.31;74.59
67397;BME280;57728;50.448;18.824;2023-05-24T07:21:28;97913.16;;;14.32;74.45
67397;BME280;57728;50.448;18.824;2023-05-24T07:23:30;97920.25;;;14.33;74.12
67397;BME280;57728;50.448;18.824;2023-05-24T07:25:32;97911.50;;;14.31;73.94
67397;BME280;57728;50.448;18.824;2023-05-24T07:27:33;97910.78;;;14.41;73.49
67397;BME280;57728;50.448;18.824;2023-05-24T07:29:36;97899.91;;;14.24;73.47
67397;BME280;57728;50.448;18.824;2023-05-24T07:31:37;97927.72;;;14.38;73.01
67397;BME280;57728;50.448;18.824;2023-05-24T07:33:39;97926.84;;;14.32;73.20
67397;BME280;57728;50.448;18.824;2023-05-24T07:35:41;97916.91;;;14.26;73.04
67397;BME280;57728;50.448;18.824;2023-05-24T07:37:43;97921.56;;;14.25;73.01
67397;BME280;57728;50.448;18.824;2023-05-24T07:39:44;97904.97;;;14.10;73.27
67397;BME280;57728;50.448;18.824;2023-05-24T07:41:46;97915.75;;;14.22;73.36
67397;BME280;57728;50.448;18.824;2023-05-24T07:43:47;97943.84;;;14.34;72.84
67397;BME280;57728;50.448;18.824;2023-05-24T07:45:49;97943.31;;;14.37;72.69
67397;BME280;57728;50.448;18.824;2023-05-24T07:47:51;97943.31;;;14.37;72.41
67397;BME280;57728;50.448;18.824;2023-05-24T07:49:52;97938.28;;;14.29;72.67
67397;BME280;57728;50.448;18.824;2023-05-24T07:51:53;97939.41;;;14.28;72.10
67397;BME280;57728;50.448;18.824;2023-05-24T07:53:58;97947.34;;;14.30;72.43
67397;BME280;57728;50.448;18.824;2023-05-24T07:56:00;97940.72;;;14.25;72.19
67397;BME280;57728;50.448;18.824;2023-05-24T07:58:01;97939.84;;;14.20;71.87
67397;BME280;57728;50.448;18.824;2023-05-24T08:00:03;97960.66;;;14.21;72.33
67397;BME280;57728;50.448;18.824;2023-05-24T08:02:12;97942.44;;;14.09;72.11
67397;BME280;57728;50.448;18.824;2023-05-24T08:04:16;97944.44;;;14.14;72.19
67397;BME280;57728;50.448;18.824;2023-05-24T08:06:18;97949.97;;;14.19;72.50
67397;BME280;57728;50.448;18.824;2023-05-24T08:08:19;97955.31;;;14.31;72.44
67397;BME280;57728;50.448;18.824;2023-05-24T08:10:20;97950.38;;;14.33;72.14
67397;BME280;57728;50.448;18.824;2023-05-24T08:12:23;97948.53;;;14.39;72.03
67397;BME280;57728;50.448;18.824;2023-05-24T08:14:25;97958.72;;;14.43;71.90
67397;BME280;57728;50.448;18.824;2023-05-24T08:16:26;97972.78;;;14.52;71.25
67397;BME280;57728;50.448;18.824;2023-05-24T08:18:43;97910.75;;;14.14;71.18
67397;BME280;57728;50.448;18.824;2023-05-24T08:20:45;97975.66;;;14.40;71.06
67397;BME280;57728;50.448;18.824;2023-05-24T08:22:46;97966.81;;;14.33;71.47
67397;BME280;57728;50.448;18.824;2023-05-24T08:24:48;97986.06;;;14.38;71.40
67397;BME280;57728;50.448;18.824;2023-05-24T08:26:50;97976.59;;;14.24;70.99
67397;BME280;57728;50.448;18.824;2023-05-24T08:28:52;97980.97;;;14.25;71.18
67397;BME280;57728;50.448;18.824;2023-05-24T08:30:54;97977.22;;;14.09;71.07
67397;BME280;57728;50.448;18.824;2023-05-24T08:32:56;97979.59;;;14.00;71.17
67397;BME280;57728;50.448;18.824;2023-05-24T08:34:58;97991.69;;;14.04;71.65
67397;BME280;57728;50.448;18.824;2023-05-24T08:36:59;97989.47;;;14.01;71.75
67397;BME280;57728;50.448;18.824;2023-05-24T08:39:01;98005.38;;;14.04;71.58
67397;BME280;57728;50.448;18.824;2023-05-24T08:41:05;97993.44;;;13.93;71.38
67397;BME280;57728;50.448;18.824;2023-05-24T08:43:09;98007.47;;;13.97;71.50
67397;BME280;57728;50.448;18.824;2023-05-24T08:45:14;98019.50;;;13.96;71.66
67397;BME280;57728;50.448;18.824;2023-05-24T08:47:16;98001.59;;;13.88;71.60
67397;BME280;57728;50.448;18.824;2023-05-24T08:49:21;98020.63;;;14.00;71.62
67397;BME280;57728;50.448;18.824;2023-05-24T08:51:24;98017.56;;;13.97;71.29
67397;BME280;57728;50.448;18.824;2023-05-24T08:53:27;98019.75;;;13.95;71.69
67397;BME280;57728;50.448;18.824;2023-05-24T08:55:30;97991.28;;;13.73;71.39
67397;BME280;57728;50.448;18.824;2023-05-24T08:57:34;98016.63;;;13.86;71.52
67397;BME280;57728;50.448;18.824;2023-05-24T08:59:40;98012.72;;;13.82;71.47
67397;BME280;57728;50.448;18.824;2023-05-24T09:01:43;98021.19;;;13.80;71.46
67397;BME280;57728;50.448;18.824;2023-05-24T09:03:53;98017.06;;;13.78;71.42
67397;BME280;57728;50.448;18.824;2023-05-24T09:05:55;98027.56;;;13.86;71.48
67397;BME280;57728;50.448;18.824;2023-05-24T09:07:59;98017.13;;;13.83;71.25
67397;BME280;57728;50.448;18.824;2023-05-24T09:10:07;98010.03;;;13.87;71.12
67397;BME280;57728;50.448;18.824;2023-05-24T09:12:13;98033.81;;;14.03;70.97
67397;BME280;57728;50.448;18.824;2023-05-24T09:14:17;97989.78;;;13.83;71.14
67397;BME280;57728;50.448;18.824;2023-05-24T09:16:20;98034.44;;;14.10;71.11
67397;BME280;57728;50.448;18.824;2023-05-24T09:18:22;98026.56;;;14.14;70.69
67397;BME280;57728;50.448;18.824;2023-05-24T09:20:23;98020.75;;;14.10;70.80
67397;BME280;57728;50.448;18.824;2023-05-24T09:22:27;98050.94;;;14.16;70.56
67397;BME280;57728;50.448;18.824;2023-05-24T09:24:30;97993.06;;;13.85;70.66
67397;BME280;57728;50.448;18.824;2023-05-24T09:26:31;98050.44;;;14.19;70.68
67397;BME280;57728;50.448;18.824;2023-05-24T09:28:33;98053.25;;;14.24;70.33
67397;BME280;57728;50.448;18.824;2023-05-24T09:30:35;97963.34;;;13.71;70.37
67397;BME280;57728;50.448;18.824;2023-05-24T09:32:36;98040.13;;;14.26;70.39
67397;BME280;57728;50.448;18.824;2023-05-24T09:34:40;98053.91;;;14.31;69.63
67397;BME280;57728;50.448;18.824;2023-05-24T09:36:45;98057.72;;;14.30;69.96
67397;BME280;57728;50.448;18.824;2023-05-24T09:38:48;98057.16;;;14.28;70.30
67397;BME280;57728;50.448;18.824;2023-05-24T09:41:04;98060.56;;;14.40;69.92
67397;BME280;57728;50.448;18.824;2023-05-24T09:43:08;98028.16;;;14.32;69.63
67397;BME280;57728;50.448;18.824;2023-05-24T09:45:10;98057.72;;;14.52;69.21
67397;BME280;57728;50.448;18.824;2023-05-24T09:47:13;98053.88;;;14.53;69.31
67397;BME280;57728;50.448;18.824;2023-05-24T09:49:15;98048.59;;;14.47;69.53
67397;BME280;57728;50.448;18.824;2023-05-24T09:51:16;98039.59;;;14.51;68.86
67397;BME280;57728;50.448;18.824;2023-05-24T09:53:21;98059.69;;;14.57;68.74
67397;BME280;57728;50.448;18.824;2023-05-24T09:55:22;97990.72;;;14.16;69.17
67397;BME280;57728;50.448;18.824;2023-05-24T09:57:23;98066.41;;;14.66;69.33
67397;BME280;57728;50.448;18.824;2023-05-24T09:59:27;98052.13;;;14.64;69.22
67397;BME280;57728;50.448;18.824;2023-05-24T10:01:32;98061.31;;;14.80;68.76
67397;BME280;57728;50.448;18.824;2023-05-24T10:03:36;98069.09;;;14.88;68.53
67397;BME280;57728;50.448;18.824;2023-05-24T10:05:42;98057.84;;;14.90;67.95
67397;BME280;57728;50.448;18.824;2023-05-24T10:07:45;98074.38;;;14.95;67.87
67397;BME280;57728;50.448;18.824;2023-05-24T10:09:47;98072.19;;;14.97;68.16
67397;BME280;57728;50.448;18.824;2023-05-24T10:11:50;97995.25;;;14.54;68.66
67397;BME280;57728;50.448;18.824;2023-05-24T10:13:52;98050.50;;;14.90;68.51
67397;BME280;57728;50.448;18.824;2023-05-24T10:15:54;98078.09;;;15.11;68.15
67397;BME280;57728;50.448;18.824;2023-05-24T10:17:57;98050.56;;;15.01;67.93
67397;BME280;57728;50.448;18.824;2023-05-24T10:20:01;98075.88;;;15.08;66.98
67397;BME280;57728;50.448;18.824;2023-05-24T10:22:06;98064.84;;;15.03;67.68
67397;BME280;57728;50.448;18.824;2023-05-24T10:24:12;98073.31;;;15.01;67.69
67397;BME280;57728;50.448;18.824;2023-05-24T10:26:20;98073.91;;;15.03;67.42
67397;BME280;57728;50.448;18.824;2023-05-24T10:28:26;98074.47;;;15.05;67.62
67397;BME280;57728;50.448;18.824;2023-05-24T10:33:03;98060.81;;;15.10;66.97
67397;BME280;57728;50.448;18.824;2023-05-24T10:35:09;98035.78;;;15.02;67.55
67397;BME280;57728;50.448;18.824;2023-05-24T10:37:13;98067.06;;;15.33;67.47
67397;BME280;57728;50.448;18.824;2023-05-24T10:39:20;98080.94;;;15.54;67.58
67397;BME280;57728;50.448;18.824;2023-05-24T10:41:25;98096.38;;;15.65;67.11
67397;BME280;57728;50.448;18.824;2023-05-24T10:43:28;98094.28;;;15.72;67.21
67397;BME280;57728;50.448;18.824;2023-05-24T10:45:49;98097.66;;;15.79;66.34
67397;BME280;57728;50.448;18.824;2023-05-24T10:47:51;98093.47;;;15.77;65.83
67397;BME280;57728;50.448;18.824;2023-05-24T10:49:57;98090.47;;;15.78;65.93
67397;BME280;57728;50.448;18.824;2023-05-24T10:52:08;98093.56;;;15.87;66.08
67397;BME280;57728;50.448;18.824;2023-05-24T10:54:17;98055.75;;;15.62;65.46
67397;BME280;57728;50.448;18.824;2023-05-24T10:56:20;98082.81;;;15.80;65.50
67397;BME280;57728;50.448;18.824;2023-05-24T10:58:43;98078.16;;;15.81;65.19
67397;BME280;57728;50.448;18.824;2023-05-24T11:00:46;98095.00;;;15.95;65.05
67397;BME280;57728;50.448;18.824;2023-05-24T11:03:09;98097.81;;;16.05;65.17
67397;BME280;57728;50.448;18.824;2023-05-24T11:05:10;98083.84;;;16.12;65.84
67397;BME280;57728;50.448;18.824;2023-05-24T11:07:15;98067.88;;;16.04;64.92
67397;BME280;57728;50.448;18.824;2023-05-24T11:09:20;98091.28;;;16.16;64.52
67397;BME280;57728;50.448;18.824;2023-05-24T11:11:25;98081.88;;;16.07;64.81
67397;BME280;57728;50.448;18.824;2023-05-24T11:13:29;98090.22;;;16.18;64.31
67397;BME280;57728;50.448;18.824;2023-05-24T11:15:34;98074.50;;;16.08;64.66